Time;durP1;ratioP1;P1;durP2;ratioP2;P2;SDS_P1;SDS_P2;PMS_P1;PMS_P2;Temp;Humidity;BMP_temperature;BMP_pressure;BME280_temperature;BME280_humidity;BME280_pressure;Samples;Min_cycle;Max_cycle;Signal;HPM_P1;HPM_P2
2021/07/02 00:01:40;;;;;;;11.07;5.45;;;;;;;24.28;56.17;98771.91;5031907;28;20108;-76
2021/07/02 00:04:06;;;;;;;7.38;5.05;;;;;;;24.33;56.09;98787.25;5030399;28;20029;-75
2021/07/02 00:06:32;;;;;;;11.32;5.80;;;;;;;23.59;55.72;98661.75;5031888;28;20032;-75
2021/07/02 00:08:58;;;;;;;9.98;5.88;;;;;;;23.99;55.64;98736.84;5031466;28;20033;-75
2021/07/02 00:11:23;;;;;;;9.35;5.65;;;;;;;24.17;55.84;98762.28;5031379;28;20026;-75
2021/07/02 00:13:49;;;;;;;8.27;4.88;;;;;;;23.90;55.84;98724.28;5031547;28;20020;-75
2021/07/02 00:16:14;;;;;;;10.07;5.40;;;;;;;24.22;55.62;98781.13;5031528;28;20056;-75
2021/07/02 00:18:40;;;;;;;8.80;5.40;;;;;;;23.89;55.77;98726.19;5031431;28;20033;-76
2021/07/02 00:21:05;;;;;;;10.18;5.13;;;;;;;23.80;55.70;98721.69;5031503;28;20033;-77
2021/07/02 00:23:32;;;;;;;9.10;5.57;;;;;;;23.93;55.73;98746.09;5031558;28;20024;-76
2021/07/02 00:25:57;;;;;;;8.30;5.00;;;;;;;24.18;55.64;98765.78;5031226;28;20057;-76
2021/07/02 00:28:23;;;;;;;9.57;5.22;;;;;;;23.88;55.77;98727.25;5031283;28;20056;-76
2021/07/02 00:30:49;;;;;;;7.10;5.00;;;;;;;24.23;55.94;98774.63;5031500;28;20026;-77
2021/07/02 00:33:15;;;;;;;9.27;5.53;;;;;;;23.99;56.37;98757.63;5031222;28;20026;-77
2021/07/02 00:35:43;;;;;;;11.38;5.28;;;;;;;24.20;56.46;98769.00;5031233;28;20563;-76
2021/07/02 00:38:09;;;;;;;8.82;5.72;;;;;;;24.25;56.71;98771.66;5031382;28;20110;-76
2021/07/02 00:40:36;;;;;;;10.07;5.35;;;;;;;23.85;56.65;98694.69;5031076;28;20084;-75
2021/07/02 00:43:02;;;;;;;11.40;5.65;;;;;;;24.34;56.58;98767.28;5031268;28;20048;-77
2021/07/02 00:45:27;;;;;;;9.82;5.95;;;;;;;24.20;56.58;98755.53;5031154;28;20414;-77
2021/07/02 00:47:53;;;;;;;7.25;5.35;;;;;;;24.18;57.12;98752.31;5031218;28;20029;-76
2021/07/02 00:50:18;;;;;;;9.27;5.28;;;;;;;24.23;56.87;98763.03;5030012;28;20057;-77
2021/07/02 00:52:45;;;;;;;8.30;5.53;;;;;;;23.84;56.61;98707.34;5031242;28;20451;-76
2021/07/02 00:55:11;;;;;;;8.88;5.32;;;;;;;24.07;56.71;98733.53;5031104;28;20021;-76
2021/07/02 00:57:38;;;;;;;10.20;5.50;;;;;;;23.98;56.53;98708.28;5030911;28;20037;-76
2021/07/02 01:00:08;;;;;;;10.70;6.35;;;;;;;24.21;56.63;98735.56;5031261;28;20033;-77
2021/07/02 01:02:34;;;;;;;10.07;5.60;;;;;;;24.22;56.75;98750.66;5033562;28;20453;-76
2021/07/02 01:05:00;;;;;;;7.97;5.00;;;;;;;24.17;56.88;98738.03;5033713;28;20034;-77
2021/07/02 01:07:25;;;;;;;12.32;5.93;;;;;;;24.05;57.00;98730.31;5034942;28;20030;-76
2021/07/02 01:09:51;;;;;;;8.73;5.47;;;;;;;24.12;56.82;98746.16;5034908;28;20025;-77
2021/07/02 01:12:17;;;;;;;8.70;5.50;;;;;;;24.19;57.22;98770.91;5034932;28;20025;-75
2021/07/02 01:14:42;;;;;;;10.95;5.03;;;;;;;23.85;56.72;98705.47;5034871;28;20497;-76
2021/07/02 01:17:08;;;;;;;10.35;5.10;;;;;;;23.93;56.57;98721.81;5034989;28;20021;-75
2021/07/02 01:19:34;;;;;;;10.35;5.93;;;;;;;24.23;56.58;98766.53;5033374;28;20407;-76
2021/07/02 01:21:59;;;;;;;8.30;5.68;;;;;;;24.25;56.20;98768.97;5034700;28;20021;-76
2021/07/02 01:24:25;;;;;;;12.80;5.47;;;;;;;24.13;56.16;98741.56;5033410;28;20022;-77
2021/07/02 01:26:51;;;;;;;11.07;5.90;;;;;;;24.23;56.07;98760.34;5034563;28;20056;-76
2021/07/02 01:29:18;;;;;;;9.10;5.47;;;;;;;23.87;55.96;98700.59;5034560;28;20021;-75
2021/07/02 01:31:44;;;;;;;11.02;5.55;;;;;;;24.20;55.97;98760.91;5033235;28;20045;-76
2021/07/02 01:34:09;;;;;;;9.65;5.57;;;;;;;23.58;56.07;98681.72;5034402;28;20557;-76
2021/07/02 01:36:35;;;;;;;9.88;6.32;;;;;;;24.08;56.13;98782.88;5034143;28;20025;-77
2021/07/02 01:39:00;;;;;;;8.57;5.22;;;;;;;23.80;56.25;98752.16;5034469;28;20064;-76
2021/07/02 01:41:25;;;;;;;12.82;6.03;;;;;;;23.83;56.33;98758.84;5034322;28;20045;-76
2021/07/02 01:43:51;;;;;;;12.30;6.18;;;;;;;23.77;56.44;98745.41;5034392;28;20021;-76
2021/07/02 01:46:17;;;;;;;11.25;5.43;;;;;;;23.66;56.46;98737.69;5032823;28;20414;-76
2021/07/02 01:48:43;;;;;;;12.40;5.95;;;;;;;23.83;56.60;98756.97;5034345;28;20017;-75
2021/07/02 01:51:09;;;;;;;10.88;5.70;;;;;;;23.96;56.47;98782.47;5032914;28;20040;-75
2021/07/02 01:53:35;;;;;;;12.35;6.28;;;;;;;23.94;56.41;98780.06;5034349;28;20478;-76
2021/07/02 01:56:01;;;;;;;7.97;5.00;;;;;;;23.63;56.54;98741.75;5034060;28;20021;-76
2021/07/02 01:58:26;;;;;;;10.55;5.93;;;;;;;23.88;56.69;98775.78;5033803;28;20022;-76
2021/07/02 02:00:51;;;;;;;11.50;6.13;;;;;;;23.76;56.76;98769.94;5033826;28;20025;-75
2021/07/02 02:03:17;;;;;;;8.65;5.45;;;;;;;23.79;56.66;98766.72;5033870;28;20048;-77
2021/07/02 02:05:42;;;;;;;12.25;5.68;;;;;;;23.69;56.65;98747.91;5033762;28;20117;-77
2021/07/02 02:08:08;;;;;;;10.00;5.88;;;;;;;23.70;56.66;98765.69;5032603;28;20104;-77
2021/07/02 02:10:34;;;;;;;10.30;6.38;;;;;;;23.63;56.96;98770.59;5033625;28;20478;-77
2021/07/02 02:12:59;;;;;;;13.35;6.40;;;;;;;23.19;57.14;98689.81;5033757;28;20022;-76
2021/07/02 02:15:25;;;;;;;12.32;6.07;;;;;;;23.10;57.14;98706.56;5033777;28;20021;-77
2021/07/02 02:17:50;;;;;;;15.77;6.13;;;;;;;22.88;57.39;98673.06;5033814;28;20017;-76
2021/07/02 02:20:17;;;;;;;11.82;5.53;;;;;;;23.49;57.19;98765.00;5033544;28;20108;-76
2021/07/02 02:22:42;;;;;;;12.15;6.40;;;;;;;23.41;57.47;98771.00;5033606;28;20100;-77
2021/07/02 02:25:09;;;;;;;14.82;6.07;;;;;;;23.41;57.45;98763.72;5032344;28;20168;-76
2021/07/02 02:27:36;;;;;;;10.10;6.13;;;;;;;23.11;57.36;98723.53;5033768;28;20524;-76
2021/07/02 02:30:04;;;;;;;10.70;6.07;;;;;;;23.54;57.08;98772.25;5033544;28;20056;-77
2021/07/02 02:32:30;;;;;;;10.73;6.22;;;;;;;23.03;57.08;98702.56;5033406;28;20021;-76
2021/07/02 02:34:56;;;;;;;12.27;6.90;;;;;;;23.53;57.08;98784.13;5033121;28;20025;-76
2021/07/02 02:37:21;;;;;;;11.23;6.60;;;;;;;23.48;56.78;98778.75;5033290;28;20512;-76
2021/07/02 02:39:46;;;;;;;10.52;6.82;;;;;;;23.53;56.79;98776.84;5031972;28;20032;-76
2021/07/02 02:42:12;;;;;;;10.60;6.47;;;;;;;23.14;56.82;98725.66;5033230;28;20050;-75
2021/07/02 02:44:37;;;;;;;13.75;6.88;;;;;;;23.03;56.73;98714.13;5032863;28;20021;-77
2021/07/02 02:47:03;;;;;;;11.13;6.65;;;;;;;23.12;56.78;98750.19;5031481;28;20560;-76
2021/07/02 02:49:28;;;;;;;14.95;6.95;;;;;;;23.54;56.58;98816.16;5031701;28;20107;-76
2021/07/02 02:51:54;;;;;;;10.98;6.47;;;;;;;23.09;56.65;98758.81;5032793;28;20025;-76
2021/07/02 02:54:20;;;;;;;10.68;6.35;;;;;;;23.53;56.72;98830.72;5032884;28;20039;-75
2021/07/02 02:57:04;;;;;;;11.75;6.72;;;;;;;23.56;56.94;98834.78;5032815;28;20128;-76
2021/07/02 02:59:30;;;;;;;11.32;6.32;;;;;;;23.54;56.63;98836.91;5032840;28;20021;-76
2021/07/02 03:01:56;;;;;;;10.98;6.30;;;;;;;23.59;56.57;98839.63;5032697;28;20035;-77
2021/07/02 03:04:22;;;;;;;11.50;6.82;;;;;;;23.45;56.57;98815.97;5032978;28;20108;-76
2021/07/02 03:06:47;;;;;;;19.33;7.25;;;;;;;23.40;56.72;98818.69;5032805;28;20032;-76
2021/07/02 03:09:12;;;;;;;12.90;6.60;;;;;;;23.33;57.02;98810.13;5032649;28;20018;-77
2021/07/02 03:11:38;;;;;;;16.05;7.32;;;;;;;23.55;56.83;98847.44;5032822;28;20037;-77
2021/07/02 03:14:03;;;;;;;15.25;7.32;;;;;;;23.29;56.69;98821.72;5032539;28;20028;-76
2021/07/02 03:16:30;;;;;;;13.70;6.72;;;;;;;23.64;56.78;98866.53;5032472;28;20075;-76
2021/07/02 03:18:55;;;;;;;10.25;7.35;;;;;;;23.40;56.63;98821.38;5032525;28;20018;-75
2021/07/02 03:21:21;;;;;;;12.57;7.57;;;;;;;23.68;56.99;98862.19;5032561;28;20025;-76
2021/07/02 03:23:46;;;;;;;13.93;7.93;;;;;;;23.28;57.23;98801.25;5032311;28;20030;-75
2021/07/02 03:26:12;;;;;;;14.13;7.72;;;;;;;23.70;57.30;98865.41;5031934;28;20021;-75
2021/07/02 03:28:37;;;;;;;13.77;8.30;;;;;;;23.54;57.43;98851.19;5031086;28;20215;-77
2021/07/02 03:31:03;;;;;;;15.48;7.63;;;;;;;23.07;57.92;98795.19;5032186;28;20036;-76
2021/07/02 03:33:28;;;;;;;14.00;8.80;;;;;;;23.13;57.81;98794.06;5032099;28;20103;-75
2021/07/02 03:35:54;;;;;;;14.77;9.02;;;;;;;23.57;57.97;98869.53;5032450;28;20017;-76
2021/07/02 03:38:20;;;;;;;13.25;7.50;;;;;;;23.57;57.75;98872.22;5032319;28;20483;-76
2021/07/02 03:40:45;;;;;;;17.00;8.27;;;;;;;23.49;57.99;98872.78;5031894;28;20050;-76
2021/07/02 03:43:10;;;;;;;16.05;8.85;;;;;;;23.42;58.07;98856.13;5032082;28;20029;-76
2021/07/02 03:45:36;;;;;;;16.58;8.90;;;;;;;23.43;58.15;98863.94;5030668;28;20069;-76
2021/07/02 03:48:02;;;;;;;12.88;8.48;;;;;;;23.42;58.32;98848.84;5032020;28;20029;-77
2021/07/02 03:50:27;;;;;;;14.93;9.40;;;;;;;23.71;58.35;98888.59;5030760;28;20026;-76
2021/07/02 03:52:52;;;;;;;13.80;9.30;;;;;;;23.24;58.45;98808.28;5032045;28;20025;-76
2021/07/02 03:55:18;;;;;;;15.05;9.25;;;;;;;23.74;58.56;98880.75;5031871;28;20022;-76
2021/07/02 03:57:43;;;;;;;18.17;10.40;;;;;;;23.77;58.72;98885.56;5031669;28;20025;-76
2021/07/02 04:00:09;;;;;;;18.50;9.75;;;;;;;23.69;58.67;98871.88;5031726;28;20017;-77
2021/07/02 04:02:35;;;;;;;13.30;9.13;;;;;;;23.74;58.68;98866.47;5030543;28;20029;-74
2021/07/02 04:05:00;;;;;;;16.77;10.02;;;;;;;23.81;58.99;98885.03;5030429;28;20022;-75
2021/07/02 04:07:26;;;;;;;17.25;9.93;;;;;;;23.65;58.71;98852.78;5031965;28;20399;-78
2021/07/02 04:09:51;;;;;;;18.23;9.80;;;;;;;23.67;58.85;98842.50;5030359;28;20021;-77
2021/07/02 04:12:17;;;;;;;19.02;10.80;;;;;;;23.52;59.18;98822.91;5031685;28;20156;-76
2021/07/02 04:14:44;;;;;;;15.32;10.90;;;;;;;23.46;59.18;98809.50;5031650;28;20441;-77
2021/07/02 04:17:10;;;;;;;17.15;11.05;;;;;;;23.72;59.47;98855.16;5031681;28;20519;-76
2021/07/02 04:19:36;;;;;;;16.15;11.27;;;;;;;23.61;59.53;98838.25;5031565;28;20096;-76
2021/07/02 04:22:03;;;;;;;19.70;12.65;;;;;;;23.90;60.05;98875.28;5031650;28;20033;-76
2021/07/02 04:24:29;;;;;;;22.17;12.05;;;;;;;23.68;60.09;98854.09;5031775;28;20051;-76
2021/07/02 04:26:54;;;;;;;21.20;11.90;;;;;;;23.65;60.26;98849.28;5031560;28;20453;-76
2021/07/02 04:29:20;;;;;;;15.45;11.40;;;;;;;23.82;59.92;98875.88;5031576;28;20067;-76
2021/07/02 04:31:45;;;;;;;20.67;12.20;;;;;;;23.87;59.94;98865.84;5031491;28;20071;-76
2021/07/02 04:34:11;;;;;;;15.63;10.70;;;;;;;24.04;59.79;98876.22;5030095;28;20056;-77
2021/07/02 04:36:36;;;;;;;16.98;10.07;;;;;;;24.00;59.58;98867.09;5031149;28;20017;-75
2021/07/02 04:39:03;;;;;;;22.45;11.63;;;;;;;24.24;59.24;98886.84;5035748;28;20025;-76
2021/07/02 04:41:28;;;;;;;18.40;11.27;;;;;;;23.95;59.09;98826.69;5035425;28;20137;-77
2021/07/02 04:43:54;;;;;;;21.88;12.48;;;;;;;23.94;59.18;98842.06;5035471;28;20108;-77
2021/07/02 04:46:19;;;;;;;16.33;10.63;;;;;;;24.07;59.05;98851.41;5035284;28;20021;-75
2021/07/02 04:48:45;;;;;;;19.05;10.68;;;;;;;24.13;58.59;98841.38;5035375;28;20025;-74
2021/07/02 04:51:11;;;;;;;13.55;10.45;;;;;;;24.53;58.66;98908.50;5040566;28;20025;-75
2021/07/02 04:53:36;;;;;;;13.75;9.40;;;;;;;24.30;58.13;98866.88;5037638;28;20478;-75
2021/07/02 04:56:02;;;;;;;19.30;11.13;;;;;;;24.46;58.13;98889.09;5036934;28;20037;-75
2021/07/02 04:58:28;;;;;;;17.25;10.95;;;;;;;24.66;57.79;98918.63;5036095;28;20033;-76
2021/07/02 05:00:53;;;;;;;15.82;10.15;;;;;;;24.58;57.95;98905.75;5046248;28;20028;-75
2021/07/02 05:03:18;;;;;;;20.58;10.65;;;;;;;24.67;58.11;98920.22;5035164;28;20100;-75
2021/07/02 05:05:44;;;;;;;19.63;10.40;;;;;;;24.28;57.73;98869.03;5040580;28;20032;-75
2021/07/02 05:08:11;;;;;;;16.05;10.88;;;;;;;24.28;57.94;98887.91;5041542;28;20025;-76
2021/07/02 05:10:36;;;;;;;18.77;11.30;;;;;;;24.46;58.25;98918.78;5035602;28;20024;-75
2021/07/02 05:13:03;;;;;;;19.40;11.63;;;;;;;24.07;58.17;98856.78;5036905;28;20022;-76
2021/07/02 05:15:29;;;;;;;23.95;15.02;;;;;;;24.62;57.91;98932.97;5034713;28;20026;-76
2021/07/02 05:17:54;;;;;;;20.52;13.10;;;;;;;24.38;57.80;98893.22;5046408;28;20049;-76
2021/07/02 05:20:20;;;;;;;19.30;11.93;;;;;;;24.73;57.72;98941.78;5054048;28;20017;-76
2021/07/02 05:22:45;;;;;;;18.00;11.38;;;;;;;24.71;57.91;98928.56;5039261;28;20064;-76
2021/07/02 05:25:11;;;;;;;18.70;11.80;;;;;;;24.88;57.65;98955.13;5034594;28;20160;-75
2021/07/02 05:27:37;;;;;;;18.63;11.48;;;;;;;24.99;57.10;98951.25;5045825;28;20516;-76
2021/07/02 05:30:04;;;;;;;17.40;10.85;;;;;;;24.83;56.95;98907.38;5053512;28;20028;-75
2021/07/02 05:32:29;;;;;;;19.98;11.90;;;;;;;24.69;56.97;98896.47;5052692;28;20116;-76
2021/07/02 05:34:57;;;;;;;21.77;11.85;;;;;;;25.15;56.76;98960.78;5054456;28;20125;-75
2021/07/02 05:37:22;;;;;;;14.38;10.55;;;;;;;25.02;56.50;98937.19;5041717;28;20406;-76
2021/07/02 05:39:48;;;;;;;16.20;10.73;;;;;;;25.31;56.78;98967.66;5034096;28;20026;-77
2021/07/02 05:42:13;;;;;;;21.35;11.93;;;;;;;25.18;56.60;98941.31;5041498;28;20037;-75
2021/07/02 05:44:39;;;;;;;19.38;10.60;;;;;;;25.05;56.10;98911.50;5053639;28;20032;-75
2021/07/02 05:47:04;;;;;;;19.05;10.93;;;;;;;25.47;56.34;98967.47;5043206;28;20490;-77
2021/07/02 05:49:31;;;;;;;19.10;12.65;;;;;;;25.41;55.97;98966.75;5042182;28;20028;-76
2021/07/02 05:51:56;;;;;;;19.40;12.25;;;;;;;25.24;55.94;98929.34;5047632;28;20021;-75
2021/07/02 05:54:21;;;;;;;20.35;12.07;;;;;;;25.25;55.84;98933.66;5041013;28;20024;-76
2021/07/02 05:56:47;;;;;;;18.08;11.98;;;;;;;25.14;55.70;98917.88;5040074;28;20032;-77
2021/07/02 05:59:13;;;;;;;19.00;14.10;;;;;;;25.44;55.63;98949.13;5047634;28;20100;-76
2021/07/02 06:01:38;;;;;;;19.42;13.23;;;;;;;25.32;55.21;98919.81;5053668;28;20103;-75
2021/07/02 06:04:04;;;;;;;22.52;14.80;;;;;;;25.67;55.30;98977.25;5042268;28;20047;-76
2021/07/02 06:06:30;;;;;;;19.73;14.77;;;;;;;25.68;55.31;98982.38;5034634;28;20025;-75
2021/07/02 06:08:56;;;;;;;21.38;13.55;;;;;;;25.71;55.04;98981.78;5051994;28;20102;-75
2021/07/02 06:11:22;;;;;;;18.23;13.23;;;;;;;25.68;54.94;98985.06;5057466;28;20025;-77
2021/07/02 06:13:48;;;;;;;25.40;15.07;;;;;;;25.65;55.30;98983.75;5047910;28;20036;-76
2021/07/02 06:16:14;;;;;;;20.02;13.40;;;;;;;25.19;54.83;98905.09;5042731;28;20463;-74
2021/07/02 06:18:39;;;;;;;22.70;13.52;;;;;;;25.45;54.81;98948.03;5036642;28;20036;-74
2021/07/02 06:21:05;;;;;;;28.88;14.27;;;;;;;25.60;54.49;98974.88;5049359;28;20545;-77
2021/07/02 06:23:34;;;;;;;20.70;12.27;;;;;;;25.25;54.46;98916.66;5053706;28;20070;-76
2021/07/02 06:26:04;;;;;;;22.48;12.88;;;;;;;25.69;53.97;98980.47;5052767;28;20021;-77
2021/07/02 06:28:31;;;;;;;20.65;13.05;;;;;;;25.81;54.12;98987.06;5055306;28;20107;-75
2021/07/02 06:30:57;;;;;;;21.13;13.43;;;;;;;25.82;53.79;98990.56;5053255;28;20078;-77
2021/07/02 06:33:23;;;;;;;21.85;11.88;;;;;;;25.71;54.41;98964.75;5041683;28;20021;-76
2021/07/02 06:35:49;;;;;;;21.42;13.25;;;;;;;25.67;54.36;98945.59;5036999;28;20020;-76
2021/07/02 06:38:16;;;;;;;17.38;11.88;;;;;;;25.82;53.86;98952.72;5035487;28;20108;-75
2021/07/02 06:40:42;;;;;;;18.92;12.13;;;;;;;25.88;54.20;98967.75;5032750;28;20569;-75
2021/07/02 06:43:08;;;;;;;18.30;12.48;;;;;;;26.08;53.94;98982.94;5034772;28;20108;-75
2021/07/02 06:45:33;;;;;;;20.05;12.55;;;;;;;25.60;53.86;98899.19;5058588;28;20027;-77
2021/07/02 06:48:02;;;;;;;16.02;12.13;;;;;;;26.22;53.40;98978.38;5038430;28;20026;-76
2021/07/02 06:50:30;;;;;;;17.15;11.57;;;;;;;26.30;52.96;98977.72;5032939;28;20021;-76
2021/07/02 06:52:56;;;;;;;16.13;11.88;;;;;;;26.32;52.77;98978.22;5033085;28;20076;-77
2021/07/02 06:55:22;;;;;;;19.08;12.52;;;;;;;26.28;53.12;98960.97;5032870;28;20028;-75
2021/07/02 06:57:48;;;;;;;20.05;12.20;;;;;;;26.17;53.00;98935.97;5036421;28;20032;-77
2021/07/02 07:00:16;;;;;;;15.15;10.82;;;;;;;26.45;52.68;98963.97;5031324;28;20025;-77
2021/07/02 07:02:42;;;;;;;19.27;12.27;;;;;;;26.21;52.40;98919.94;5044532;28;20025;-74
2021/07/02 07:05:08;;;;;;;15.50;11.23;;;;;;;26.63;52.15;98975.84;5036621;28;20036;-74
2021/07/02 07:07:33;;;;;;;16.00;11.57;;;;;;;26.43;52.00;98930.97;5046114;28;20516;-75
2021/07/02 07:09:58;;;;;;;17.13;11.55;;;;;;;26.78;51.59;98967.47;5054646;28;20024;-76
2021/07/02 07:12:24;;;;;;;14.70;10.93;;;;;;;26.46;51.67;98913.31;5043780;28;20474;-77
2021/07/02 07:14:49;;;;;;;17.42;12.07;;;;;;;26.48;51.37;98906.50;5052487;28;20142;-74
2021/07/02 07:17:15;;;;;;;16.48;11.68;;;;;;;26.90;51.37;98958.88;5034899;28;20025;-73
2021/07/02 07:19:40;;;;;;;17.17;12.13;;;;;;;26.98;51.14;98971.75;5036339;28;20524;-74
2021/07/02 07:22:05;;;;;;;14.95;10.90;;;;;;;26.84;50.96;98947.31;5032176;28;20021;-76
2021/07/02 07:24:31;;;;;;;14.20;10.32;;;;;;;26.55;50.69;98887.97;5041594;28;20021;-76
2021/07/02 07:26:57;;;;;;;14.65;11.00;;;;;;;26.62;50.33;98886.78;5032485;28;20112;-74
2021/07/02 07:29:24;;;;;;;12.15;8.82;;;;;;;26.75;49.80;98894.91;5044381;28;20402;-75
2021/07/02 07:31:51;;;;;;;11.00;9.23;;;;;;;27.28;49.83;98956.00;5044357;28;20026;-77
2021/07/02 07:37:09;;;;;;;13.13;8.63;;;;;;;27.35;48.18;98938.22;5039397;28;20052;-76
2021/07/02 07:39:34;;;;;;;13.80;8.63;;;;;;;27.15;47.62;98892.56;5035106;28;20521;-76
2021/07/02 07:41:59;;;;;;;12.25;7.65;;;;;;;27.61;47.47;98957.53;5045550;28;20048;-76
2021/07/02 07:44:25;;;;;;;10.75;8.10;;;;;;;27.27;47.36;98903.69;5038680;28;20021;-76
2021/07/02 07:46:52;;;;;;;10.50;7.38;;;;;;;27.50;47.10;98931.69;5035006;28;20045;-77
2021/07/02 07:49:17;;;;;;;14.25;8.05;;;;;;;27.56;46.38;98905.28;5038825;28;20060;-76
2021/07/02 07:51:49;;;;;;;12.90;8.20;;;;;;;28.00;46.22;98956.91;5051049;28;20136;-77
2021/07/02 07:54:15;;;;;;;15.73;7.65;;;;;;;27.79;45.45;98901.50;5035548;28;20457;-76
2021/07/02 07:56:50;;;;;;;13.27;7.65;;;;;;;28.30;45.36;98960.06;5032865;28;20024;-79
2021/07/02 07:59:17;;;;;;;8.82;7.20;;;;;;;28.22;45.39;98934.41;5035196;28;20060;-76
2021/07/02 08:01:42;;;;;;;14.32;8.25;;;;;;;28.10;45.23;98905.09;5031166;28;20104;-75
2021/07/02 08:04:08;;;;;;;15.32;8.88;;;;;;;28.17;45.11;98912.81;5041955;28;20096;-75
2021/07/02 08:06:33;;;;;;;11.77;8.05;;;;;;;28.56;45.13;98954.81;5031155;28;20457;-78
2021/07/02 08:08:58;;;;;;;12.85;8.98;;;;;;;28.24;45.03;98931.41;5043038;28;20029;-76
2021/07/02 08:11:24;;;;;;;13.23;9.23;;;;;;;28.23;45.06;98897.19;5031505;28;20116;-77
2021/07/02 08:13:49;;;;;;;13.80;7.47;;;;;;;28.08;44.23;98860.38;5038247;28;20075;-75
2021/07/02 08:16:15;;;;;;;12.77;7.65;;;;;;;28.49;44.26;98906.38;5040227;28;20029;-77
2021/07/02 08:18:40;;;;;;;14.70;8.77;;;;;;;28.56;44.43;98897.78;5037800;28;20079;-75
2021/07/02 08:21:05;;;;;;;13.38;9.35;;;;;;;28.84;44.62;98917.44;5032822;28;20025;-76
2021/07/02 08:23:32;;;;;;;10.40;8.10;;;;;;;28.60;43.89;98877.81;5043811;28;20430;-76
2021/07/02 08:25:58;;;;;;;10.18;6.70;;;;;;;28.63;43.15;98876.41;5033277;28;20060;-77
2021/07/02 08:31:07;;;;;;;12.13;6.90;;;;;;;28.80;42.37;98899.00;5034105;28;21194;-77
2021/07/02 08:33:33;;;;;;;16.55;8.90;;;;;;;28.96;42.42;98915.72;5034735;28;20037;-77
2021/07/02 08:35:59;;;;;;;10.82;6.85;;;;;;;29.18;41.96;98939.31;5048645;28;20101;-74
2021/07/02 08:38:24;;;;;;;9.13;6.07;;;;;;;29.27;40.94;98934.72;5032776;28;20508;-75
2021/07/02 08:40:53;;;;;;;9.73;6.07;;;;;;;29.05;40.39;98889.41;5034036;28;20050;-75
2021/07/02 08:43:18;;;;;;;12.27;6.63;;;;;;;29.25;40.09;98887.19;5045042;28;20118;-76
2021/07/02 08:45:45;;;;;;;11.50;6.35;;;;;;;29.24;40.09;98901.91;5029239;28;20030;-77
2021/07/02 08:48:18;;;;;;;10.30;7.15;;;;;;;29.48;40.72;98906.94;5034387;28;20079;-76
2021/07/02 08:50:43;;;;;;;9.75;5.53;;;;;;;29.70;39.78;98923.94;5048313;28;20029;-76
2021/07/02 08:53:09;;;;;;;11.95;6.90;;;;;;;29.87;39.83;98942.22;5033535;28;20021;-75
2021/07/02 08:55:34;;;;;;;12.07;6.30;;;;;;;29.26;39.75;98824.34;5041087;28;20029;-75
2021/07/02 08:58:11;;;;;;;7.88;6.32;;;;;;;29.64;39.50;98870.78;5036948;28;20017;-75
2021/07/02 09:00:37;;;;;;;11.32;6.50;;;;;;;30.21;40.15;98935.19;5043285;28;20428;-75
2021/07/02 09:03:35;;;;;;;11.27;6.53;;;;;;;30.28;39.09;98940.94;5035411;28;20025;-74
2021/07/02 09:06:09;;;;;;;9.07;6.30;;;;;;;30.40;38.57;98927.47;5033097;28;20032;-75
2021/07/02 09:08:36;;;;;;;9.38;6.18;;;;;;;30.02;38.17;98864.75;5038367;28;20056;-75
2021/07/02 09:11:02;;;;;;;9.48;5.90;;;;;;;30.49;38.25;98938.38;5034676;28;20029;-76
2021/07/02 09:13:42;;;;;;;9.98;6.70;;;;;;;30.41;38.31;98909.19;5036370;28;20033;-74
2021/07/02 09:16:38;;;;;;;11.77;6.30;;;;;;;30.78;38.53;98926.78;5037121;28;20041;-76
2021/07/02 09:19:23;;;;;;;12.68;6.90;;;;;;;30.81;37.75;98918.75;5030968;28;20033;-77
2021/07/02 09:21:50;;;;;;;9.85;6.13;;;;;;;30.84;38.26;98912.63;5042510;28;20029;-77
2021/07/02 09:24:38;;;;;;;10.30;8.13;;;;;;;31.10;38.17;98917.16;5036366;28;20029;-77
2021/07/02 09:27:23;;;;;;;13.85;8.82;;;;;;;31.25;38.03;98901.09;5040740;28;20029;-77
2021/07/02 09:30:05;;;;;;;10.52;6.57;;;;;;;31.23;36.72;98872.56;5032768;28;20034;-76
2021/07/02 09:32:31;;;;;;;12.88;7.65;;;;;;;31.53;36.68;98901.38;5049290;28;20494;-74
2021/07/02 09:34:59;;;;;;;11.27;6.35;;;;;;;31.28;36.38;98837.69;5050257;28;20024;-75
2021/07/02 09:37:28;;;;;;;11.32;6.80;;;;;;;31.49;36.61;98836.91;5060749;28;20019;-77
2021/07/02 09:39:54;;;;;;;11.23;6.93;;;;;;;32.03;36.21;98883.38;5040182;28;20022;-76
2021/07/02 09:42:27;;;;;;;10.82;6.78;;;;;;;32.23;35.87;98888.00;5035780;28;20052;-75
2021/07/02 09:45:09;;;;;;;12.15;7.13;;;;;;;32.35;35.34;98887.25;5057151;28;20025;-77
2021/07/02 09:47:35;;;;;;;8.05;6.03;;;;;;;32.33;35.50;98884.84;5033342;28;20439;-75
2021/07/02 09:50:14;;;;;;;9.02;5.70;;;;;;;32.43;35.52;98884.44;5034123;28;20025;-75
2021/07/02 09:52:47;;;;;;;12.25;7.47;;;;;;;32.29;35.17;98828.50;5034085;28;20037;-76
2021/07/02 09:55:14;;;;;;;12.55;7.00;;;;;;;32.90;34.77;98886.00;5045236;28;20044;-75
2021/07/02 09:57:40;;;;;;;10.98;7.30;;;;;;;32.76;34.85;98876.19;5035730;28;20131;-79
2021/07/02 10:00:09;;;;;;;12.07;7.60;;;;;;;32.85;34.57;98868.69;5050759;28;20112;-76
2021/07/02 10:02:35;;;;;;;10.32;5.95;;;;;;;32.86;33.94;98836.69;5035803;28;20028;-76
2021/07/02 10:05:01;;;;;;;10.02;6.57;;;;;;;32.74;34.36;98782.78;5057958;28;20532;-77
2021/07/02 10:07:27;;;;;;;10.20;6.38;;;;;;;33.38;33.94;98871.53;5052449;28;20103;-76
2021/07/02 10:09:53;;;;;;;10.65;6.00;;;;;;;33.27;33.41;98832.84;5045886;28;20109;-76
2021/07/02 10:12:20;;;;;;;9.52;6.60;;;;;;;33.20;33.40;98813.50;5033361;28;20025;-76
2021/07/02 10:14:48;;;;;;;11.57;5.53;;;;;;;33.27;32.54;98800.03;5039767;28;20067;-75
2021/07/02 10:17:14;;;;;;;9.05;5.38;;;;;;;33.84;32.63;98892.09;5047968;28;20018;-76
2021/07/02 10:19:41;;;;;;;12.80;6.35;;;;;;;33.92;32.21;98893.88;5032393;28;20106;-76
2021/07/02 10:22:09;;;;;;;11.60;6.95;;;;;;;33.94;32.50;98857.94;5056712;28;20021;-76
2021/07/02 10:24:36;;;;;;;13.02;5.93;;;;;;;34.36;32.00;98880.25;5041559;28;20029;-76
2021/07/02 10:27:03;;;;;;;7.97;5.38;;;;;;;34.17;31.02;98839.75;5041197;28;20442;-76
2021/07/02 10:29:31;;;;;;;14.23;5.43;;;;;;;33.71;31.59;98822.06;5045003;28;20425;-75
2021/07/02 10:31:57;;;;;;;11.65;5.63;;;;;;;33.89;31.50;98867.19;5044404;28;20033;-76
2021/07/02 10:34:24;;;;;;;10.50;4.45;;;;;;;33.45;31.42;98809.59;5041858;28;20374;-76
2021/07/02 10:36:50;;;;;;;10.30;4.75;;;;;;;33.45;30.63;98806.88;5044450;28;20028;-75
2021/07/02 10:39:33;;;;;;;7.97;4.43;;;;;;;33.62;30.41;98804.97;5040395;28;20025;-77
2021/07/02 10:42:09;;;;;;;10.45;4.07;;;;;;;33.95;28.65;98815.69;5042252;28;20437;-76
2021/07/02 10:44:53;;;;;;;6.55;3.95;;;;;;;34.41;28.94;98850.63;5032224;28;20040;-77
2021/07/02 10:47:19;;;;;;;8.52;3.45;;;;;;;34.26;28.67;98799.31;5045142;28;20552;-74
2021/07/02 10:49:45;;;;;;;7.00;3.60;;;;;;;34.59;27.83;98814.63;5050330;28;20029;-77
2021/07/02 10:52:22;;;;;;;8.63;3.17;;;;;;;35.14;27.64;98838.31;5050432;28;20464;-75
2021/07/02 10:54:50;;;;;;;9.23;3.85;;;;;;;35.28;26.98;98832.34;5049381;28;20102;-78
2021/07/02 10:57:18;;;;;;;8.45;4.00;;;;;;;35.39;27.45;98838.88;5038411;28;20025;-77
2021/07/02 10:59:46;;;;;;;9.60;4.18;;;;;;;35.41;27.39;98838.53;5033420;28;20117;-77
2021/07/02 11:02:19;;;;;;;10.52;6.00;;;;;;;35.28;27.01;98796.66;5034951;28;20504;-76
2021/07/02 11:04:45;;;;;;;9.93;4.95;;;;;;;35.65;27.42;98840.97;5033412;28;20099;-77
2021/07/02 11:07:21;;;;;;;7.28;4.70;;;;;;;35.88;26.55;98841.09;5035241;28;20033;-76
2021/07/02 11:12:21;;;;;;;8.77;4.10;;;;;;;36.03;26.75;98831.16;5047844;28;20517;-75
2021/07/02 11:14:53;;;;;;;7.75;4.40;;;;;;;36.01;27.11;98834.28;5045838;28;20088;-76
2021/07/02 11:17:30;;;;;;;9.40;5.10;;;;;;;36.13;27.08;98828.63;5038097;28;20021;-77
2021/07/02 11:20:04;;;;;;;11.65;6.00;;;;;;;36.24;27.00;98824.09;5036500;28;20441;-76
2021/07/02 11:22:34;;;;;;;8.10;5.05;;;;;;;36.28;26.93;98815.91;5031313;28;20110;-75
2021/07/02 11:25:11;;;;;;;9.38;5.43;;;;;;;36.27;26.79;98811.56;5050734;28;20493;-76
2021/07/02 11:27:50;;;;;;;9.07;5.22;;;;;;;36.17;26.94;98818.47;5033314;28;20437;-76
2021/07/02 11:30:22;;;;;;;9.20;6.45;;;;;;;36.14;27.48;98812.91;5032202;28;20041;-76
2021/07/02 11:32:53;;;;;;;8.75;4.43;;;;;;;35.91;27.19;98758.75;5037455;28;20060;-77